createdAt,value
2022-11-17T00:03:14.841Z,99653.28
2022-11-17T00:08:13.859Z,99655.00
2022-11-17T00:13:32.099Z,99658.34
2022-11-17T00:18:48.636Z,99640.13
2022-11-17T00:23:50.708Z,99635.38
2022-11-17T00:28:54.647Z,99635.19
2022-11-17T00:34:08.552Z,99628.41
2022-11-17T00:39:07.813Z,99625.03
2022-11-17T00:44:08.935Z,99621.19
2022-11-17T00:49:08.911Z,99627.47
2022-11-17T00:54:08.806Z,99611.19
2022-11-17T00:59:08.931Z,99613.25
2022-11-17T01:04:08.282Z,99604.75
2022-11-17T01:09:10.985Z,99598.06
2022-11-17T01:14:14.115Z,99580.13
2022-11-17T01:19:13.284Z,99571.75
2022-11-17T01:24:13.547Z,99565.50
2022-11-17T01:29:17.236Z,99561.66
2022-11-17T01:34:16.068Z,99550.66
2022-11-17T01:39:17.662Z,99562.50
2022-11-17T01:44:53.595Z,99562.25
2022-11-17T01:49:57.650Z,99551.53
2022-11-17T01:54:58.546Z,99550.13
2022-11-17T02:00:02.881Z,99534.34
2022-11-17T02:05:18.031Z,99538.91
2022-11-17T02:10:17.379Z,99526.72
2022-11-17T02:15:16.356Z,99519.25
2022-11-17T02:20:23.579Z,99526.47
2022-11-17T02:25:39.840Z,99521.53
2022-11-17T02:30:50.565Z,99510.63
2022-11-17T02:35:57.391Z,99514.72
2022-11-17T02:41:06.093Z,99505.72
2022-11-17T02:46:09.864Z,99507.28
2022-11-17T02:51:13.308Z,99502.59
2022-11-17T02:56:12.132Z,99484.72
2022-11-17T03:01:27.205Z,99481.00
2022-11-17T03:06:36.039Z,99480.53
2022-11-17T03:11:43.725Z,99478.03
2022-11-17T03:16:52.711Z,99469.84
2022-11-17T03:21:57.132Z,99460.97
2022-11-17T03:27:01.850Z,99457.41
2022-11-17T03:32:06.113Z,99446.84
2022-11-17T03:37:08.274Z,99437.00
2022-11-17T03:42:13.420Z,99436.28
2022-11-17T03:47:14.565Z,99436.50
2022-11-17T03:52:13.317Z,99431.59
2022-11-17T03:57:15.932Z,99427.28
2022-11-17T04:02:18.680Z,99417.56
2022-11-17T04:07:17.550Z,99410.47
2022-11-17T04:12:33.517Z,99410.38
2022-11-17T04:17:33.573Z,99409.66
2022-11-17T04:22:32.329Z,99405.72
2022-11-17T04:27:48.338Z,99417.59
2022-11-17T04:32:48.332Z,99416.63
2022-11-17T04:37:47.025Z,99398.91
2022-11-17T04:42:45.687Z,99401.31
2022-11-17T04:47:44.397Z,99390.69
2022-11-17T04:52:44.876Z,99391.28
2022-11-17T04:57:46.251Z,99386.47
2022-11-17T05:02:44.955Z,99374.63
2022-11-17T05:07:45.260Z,99362.53
2022-11-17T05:13:01.365Z,99360.94
2022-11-17T05:18:01.166Z,99363.00
2022-11-17T05:23:20.416Z,99363.25
2022-11-17T05:28:19.505Z,99363.47
2022-11-17T05:33:18.858Z,99358.19
2022-11-17T05:38:18.943Z,99353.25
2022-11-17T05:43:17.717Z,99352.66
2022-11-17T05:48:16.688Z,99357.91
2022-11-17T05:53:15.407Z,99360.53
2022-11-17T05:58:21.171Z,99350.06
2022-11-17T06:03:24.528Z,99352.56
2022-11-17T06:08:23.272Z,99349.22
2022-11-17T06:13:26.193Z,99348.41
2022-11-17T06:18:28.591Z,99355.47
2022-11-17T06:23:30.110Z,99356.97
2022-11-17T06:28:32.348Z,99353.41
2022-11-17T06:33:33.798Z,99343.16
2022-11-17T06:38:34.466Z,99355.19
2022-11-17T06:43:34.963Z,99346.72
2022-11-17T06:48:36.749Z,99348.13
2022-11-17T06:53:36.294Z,99341.66
2022-11-17T06:58:38.470Z,99343.41
2022-11-17T07:03:38.704Z,99338.00
2022-11-17T07:08:38.537Z,99345.69
2022-11-17T07:13:39.401Z,99336.50
2022-11-17T07:18:38.949Z,99349.88
2022-11-17T07:23:39.220Z,99336.00
2022-11-17T07:28:39.635Z,99346.50
2022-11-17T07:33:41.609Z,99334.28
2022-11-17T07:38:45.683Z,99345.84
2022-11-17T07:43:49.332Z,99343.78
2022-11-17T07:48:48.139Z,99342.97
2022-11-17T07:53:46.926Z,99350.75
2022-11-17T07:58:45.713Z,99361.78
2022-11-17T08:03:46.143Z,99367.75
2022-11-17T08:08:44.951Z,99372.59
2022-11-17T08:13:43.826Z,99378.28
2022-11-17T08:18:45.952Z,99386.50
2022-11-17T08:23:51.304Z,99385.00
2022-11-17T08:28:53.709Z,99389.13
2022-11-17T08:33:56.837Z,99397.59
2022-11-17T08:38:57.099Z,99400.44
2022-11-17T08:43:56.137Z,99403.13
2022-11-17T08:48:57.151Z,99403.53
2022-11-17T08:53:59.829Z,99408.38
2022-11-17T08:58:58.544Z,99402.25
2022-11-17T09:03:57.328Z,99407.34
2022-11-17T09:08:57.827Z,99399.31
2022-11-17T09:13:56.811Z,99398.16
2022-11-17T09:18:57.123Z,99393.47
2022-11-17T09:23:57.316Z,99386.91
2022-11-17T09:28:56.023Z,99379.63
2022-11-17T09:33:54.890Z,99385.75
2022-11-17T09:38:53.748Z,99377.56
2022-11-17T09:44:03.765Z,99371.50
2022-11-17T09:49:11.999Z,99371.31
2022-11-17T09:54:19.796Z,99366.88
2022-11-17T09:59:23.028Z,99349.56
2022-11-17T10:04:22.597Z,99365.00
2022-11-17T10:09:36.233Z,99348.91
2022-11-17T10:14:40.806Z,99364.41
2022-11-17T10:19:39.932Z,99357.97
2022-11-17T10:24:41.608Z,99384.59
2022-11-17T10:29:41.703Z,99350.31
2022-11-17T10:34:41.579Z,99358.50
2022-11-17T10:39:42.781Z,99358.50
2022-11-17T10:44:44.503Z,99368.75
2022-11-17T10:49:43.244Z,99357.00
2022-11-17T10:54:42.064Z,99363.50
2022-11-17T10:59:49.676Z,99387.38
2022-11-17T11:05:07.731Z,99389.81
2022-11-17T11:10:15.947Z,99404.66
2022-11-17T11:15:21.195Z,99429.03
2022-11-17T11:20:22.774Z,99424.47
2022-11-17T11:25:35.058Z,99410.63
2022-11-17T11:30:39.770Z,99430.72
2022-11-17T11:35:50.314Z,99451.34
2022-11-17T11:41:06.317Z,99425.47
2022-11-17T11:46:27.490Z,99411.97
2022-11-17T11:51:30.778Z,99418.41
2022-11-17T11:56:34.593Z,99440.59
2022-11-17T12:01:45.355Z,99432.56
2022-11-17T12:06:53.983Z,99436.47
2022-11-17T12:12:03.967Z,99430.59
2022-11-17T12:17:07.971Z,99430.94
2022-11-17T12:22:06.773Z,99453.25
2022-11-17T12:27:32.699Z,99443.66
2022-11-17T12:32:55.457Z,99434.03
2022-11-17T12:38:27.549Z,99444.38
2022-11-17T12:43:27.822Z,99428.59
2022-11-17T12:48:34.761Z,99422.72
2022-11-17T12:53:53.658Z,99466.91
2022-11-17T12:59:06.063Z,99439.22
2022-11-17T13:04:13.327Z,99434.38
2022-11-17T13:09:13.274Z,99452.50
2022-11-17T13:14:14.515Z,99473.44
2022-11-17T13:19:33.661Z,99458.44
2022-11-17T13:24:35.213Z,99464.63
2022-11-17T13:29:34.100Z,99461.03
2022-11-17T13:34:34.271Z,99453.44
2022-11-17T13:39:32.982Z,99449.72
2022-11-17T13:44:34.180Z,99465.81
2022-11-17T13:49:35.960Z,99463.47
2022-11-17T13:54:37.133Z,99471.00
2022-11-17T13:59:43.385Z,99468.88
2022-11-17T14:05:24.139Z,99474.09
2022-11-17T14:10:33.507Z,99476.84
2022-11-17T14:15:35.429Z,99485.97
2022-11-17T14:20:37.415Z,99497.16
2022-11-17T14:25:40.643Z,99487.13
2022-11-17T14:30:40.266Z,99490.00
2022-11-17T14:35:40.875Z,99486.38
2022-11-17T14:40:42.720Z,99503.63
2022-11-17T14:45:44.606Z,99498.34
2022-11-17T14:50:44.673Z,99513.00
2022-11-17T14:55:44.402Z,99514.41
2022-11-17T15:00:43.462Z,99511.81
2022-11-17T15:05:47.450Z,99524.75
2022-11-17T15:10:46.950Z,99517.94
2022-11-17T15:15:45.880Z,99525.97
2022-11-17T15:20:44.777Z,99545.97
2022-11-17T15:25:45.063Z,99551.25
2022-11-17T15:30:44.136Z,99558.56
2022-11-17T15:35:43.063Z,99565.81
2022-11-17T15:40:42.002Z,99579.53
2022-11-17T15:45:45.214Z,99579.34
2022-11-17T15:50:44.061Z,99585.75
2022-11-17T15:55:42.884Z,99590.69
2022-11-17T16:00:43.193Z,99589.44
2022-11-17T16:05:42.140Z,99608.41
2022-11-17T16:10:41.263Z,99596.03
2022-11-17T16:15:40.146Z,99596.16
2022-11-17T16:20:40.374Z,99604.69
2022-11-17T16:25:41.340Z,99603.28
2022-11-17T16:30:40.493Z,99606.41
2022-11-17T16:35:46.247Z,99620.03
2022-11-17T16:40:45.471Z,99629.66
2022-11-17T16:45:46.171Z,99630.94
2022-11-17T16:50:50.818Z,99629.88
2022-11-17T16:55:55.973Z,99640.19
2022-11-17T17:00:59.264Z,99638.75
2022-11-17T17:06:05.421Z,99642.78
2022-11-17T17:11:09.449Z,99653.59
2022-11-17T17:16:11.575Z,99669.38
2022-11-17T17:21:22.101Z,99666.75
2022-11-17T17:26:23.605Z,99674.44
2022-11-17T17:31:25.186Z,99681.97
2022-11-17T17:36:27.202Z,99686.00
2022-11-17T17:41:29.542Z,99695.31
2022-11-17T17:46:30.843Z,99702.03
2022-11-17T17:51:32.138Z,99712.09
2022-11-17T17:56:36.641Z,99718.13
2022-11-17T18:01:40.875Z,99714.22
2022-11-17T18:06:44.574Z,99724.75
2022-11-17T18:11:47.987Z,99730.75
2022-11-17T18:16:48.088Z,99726.38
2022-11-17T18:21:52.747Z,99726.53
2022-11-17T18:26:54.129Z,99730.66
2022-11-17T18:31:54.198Z,99742.97
2022-11-17T18:36:59.225Z,99744.19
2022-11-17T18:41:58.380Z,99759.28
2022-11-17T18:47:02.502Z,99760.22
2022-11-17T18:52:04.678Z,99758.47
2022-11-17T18:57:04.688Z,99759.72
2022-11-17T19:02:03.447Z,99763.91
2022-11-17T19:07:03.638Z,99758.44
2022-11-17T19:12:02.377Z,99772.56
2022-11-17T19:17:01.217Z,99774.78
2022-11-17T19:22:02.167Z,99787.69
2022-11-17T19:27:02.251Z,99786.97
2022-11-17T19:32:01.005Z,99794.56
2022-11-17T19:36:59.873Z,99796.09
2022-11-17T19:42:00.650Z,99792.97
2022-11-17T19:47:03.557Z,99809.34
2022-11-17T19:52:02.286Z,99810.09
2022-11-17T19:57:02.200Z,99813.56
2022-11-17T20:02:03.297Z,99804.13
2022-11-17T20:07:02.173Z,99809.72
2022-11-17T20:12:01.011Z,99808.91
2022-11-17T20:16:59.844Z,99814.47
2022-11-17T20:22:01.112Z,99810.69
2022-11-17T20:27:01.280Z,99819.84
2022-11-17T20:32:00.130Z,99818.56
2022-11-17T20:37:43.000Z,99798.47
2022-11-17T20:42:42.301Z,99805.22
2022-11-17T20:47:41.205Z,99798.78
2022-11-17T20:52:40.512Z,99803.84
2022-11-17T20:57:40.610Z,99804.81
2022-11-17T21:02:39.328Z,99796.38
2022-11-17T21:07:38.923Z,99799.72
2022-11-17T21:12:37.730Z,99814.50
2022-11-17T21:17:55.377Z,99820.59
2022-11-17T21:22:54.091Z,99820.59
2022-11-17T21:27:53.004Z,99824.59
2022-11-17T21:32:53.167Z,99828.19
2022-11-17T21:37:51.987Z,99849.22
2022-11-17T21:42:50.748Z,99848.59
2022-11-17T21:47:49.551Z,99853.63
2022-11-17T21:52:49.661Z,99848.53
2022-11-17T21:57:51.424Z,99861.41
2022-11-17T22:02:50.241Z,99864.91
2022-11-17T22:07:50.408Z,99854.69
2022-11-17T22:12:49.201Z,99862.06
2022-11-17T22:17:48.726Z,99845.28
2022-11-17T22:22:49.227Z,99849.06
2022-11-17T22:27:49.466Z,99850.50
2022-11-17T22:32:48.275Z,99846.72
2022-11-17T22:37:47.604Z,99845.81
2022-11-17T22:42:46.344Z,99851.97
2022-11-17T22:47:46.527Z,99855.78
2022-11-17T22:52:45.231Z,99856.94
2022-11-17T22:57:44.401Z,99854.25
2022-11-17T23:02:43.036Z,99850.78
2022-11-17T23:07:43.223Z,99844.06
2022-11-17T23:12:42.318Z,99856.78
2022-11-17T23:17:42.138Z,99849.84
2022-11-17T23:22:42.221Z,99853.41
2022-11-17T23:27:40.893Z,99855.28
2022-11-17T23:32:39.607Z,99861.41
2022-11-17T23:37:39.003Z,99852.38
2022-11-17T23:42:43.109Z,99854.81
2022-11-17T23:47:42.192Z,99860.25
2022-11-17T23:52:40.937Z,99866.38
2022-11-17T23:57:41.193Z,99866.69
